createdAt,value
2022-08-03T00:01:09.260Z,61.87
2022-08-03T00:03:36.039Z,62.14
2022-08-03T00:06:04.368Z,62.05
2022-08-03T00:08:31.869Z,61.61
2022-08-03T00:10:58.616Z,61.75
2022-08-03T00:13:25.956Z,61.89
2022-08-03T00:15:52.699Z,61.58
2022-08-03T00:18:19.694Z,60.78
2022-08-03T00:20:46.464Z,60.75
2022-08-03T00:23:13.147Z,61.52
2022-08-03T00:25:39.921Z,62.29
2022-08-03T00:28:06.848Z,61.26
2022-08-03T00:30:35.954Z,61.24
2022-08-03T00:33:03.983Z,61.21
2022-08-03T00:35:36.767Z,61.56
2022-08-03T00:38:04.374Z,61.10
2022-08-03T00:40:31.292Z,61.69
2022-08-03T00:43:00.516Z,61.95
2022-08-03T00:45:29.638Z,61.80
2022-08-03T00:47:57.415Z,62.33
2022-08-03T00:50:26.470Z,62.68
2022-08-03T00:52:55.601Z,63.04
2022-08-03T00:55:22.675Z,62.68
2022-08-03T00:57:49.760Z,63.17
2022-08-03T01:00:20.289Z,63.57
2022-08-03T01:02:49.819Z,64.09
2022-08-03T01:05:16.691Z,63.54
2022-08-03T01:08:05.216Z,64.06
2022-08-03T01:10:53.290Z,64.41
2022-08-03T01:14:04.068Z,64.66
2022-08-03T01:16:41.520Z,64.46
2022-08-03T01:19:42.855Z,63.42
2022-08-03T01:22:40.507Z,64.54
2022-08-03T01:25:07.364Z,64.72
2022-08-03T01:27:59.044Z,64.73
2022-08-03T01:30:31.953Z,65.35
2022-08-03T01:33:15.665Z,65.30
2022-08-03T01:35:47.208Z,65.67
2022-08-03T01:38:18.256Z,66.01
2022-08-03T01:40:47.136Z,65.23
2022-08-03T01:44:28.644Z,65.37
2022-08-03T01:46:06.308Z,66.13
2022-08-03T01:48:36.354Z,66.59
2022-08-03T01:51:03.227Z,65.95
2022-08-03T01:53:32.396Z,65.21
2022-08-03T01:56:00.148Z,65.48
2022-08-03T01:58:28.987Z,66.04
2022-08-03T02:00:59.505Z,66.09
2022-08-03T02:03:28.859Z,67.00
2022-08-03T02:06:58.950Z,66.58
2022-08-03T02:08:45.339Z,66.21
2022-08-03T02:11:13.377Z,66.63
2022-08-03T02:13:41.058Z,66.51
2022-08-03T02:16:08.567Z,67.00
2022-08-03T02:18:35.718Z,67.64
2022-08-03T02:21:05.508Z,67.86
2022-08-03T02:23:38.901Z,68.64
2022-08-03T02:26:09.609Z,69.61
2022-08-03T02:28:41.593Z,69.79
2022-08-03T02:31:15.683Z,69.28
2022-08-03T02:33:48.210Z,68.86
2022-08-03T02:36:17.071Z,69.38
2022-08-03T02:38:46.026Z,69.47
2022-08-03T02:41:21.189Z,69.29
2022-08-03T02:44:06.673Z,68.92
2022-08-03T02:46:38.694Z,68.36
2022-08-03T02:49:41.441Z,68.30
2022-08-03T02:51:55.579Z,68.79
2022-08-03T02:54:25.053Z,68.02
2022-08-03T02:56:54.185Z,68.11
2022-08-03T02:59:21.775Z,67.87
2022-08-03T03:01:49.522Z,67.71
2022-08-03T03:04:17.209Z,67.37
2022-08-03T03:06:47.609Z,67.80
2022-08-03T03:09:15.289Z,68.06
2022-08-03T03:11:44.410Z,68.70
2022-08-03T03:14:13.616Z,68.26
2022-08-03T03:16:41.966Z,67.44
2022-08-03T03:19:13.399Z,68.46
2022-08-03T03:21:40.623Z,68.43
2022-08-03T03:24:08.293Z,69.45
2022-08-03T03:26:38.357Z,69.30
2022-08-03T03:29:09.662Z,68.35
2022-08-03T03:31:37.326Z,68.32
2022-08-03T03:34:05.205Z,68.77
2022-08-03T03:36:33.416Z,68.37
2022-08-03T03:39:00.121Z,68.35
2022-08-03T03:41:42.819Z,68.78
2022-08-03T03:44:09.662Z,69.27
2022-08-03T03:46:38.194Z,69.88
2022-08-03T03:49:07.476Z,70.89
2022-08-03T03:51:34.781Z,69.27
2022-08-03T03:54:04.602Z,69.96
2022-08-03T03:56:31.642Z,69.55
2022-08-03T03:58:58.396Z,69.88
2022-08-03T04:01:25.855Z,68.61
2022-08-03T04:03:52.663Z,69.69
2022-08-03T04:06:38.356Z,69.88
2022-08-03T04:09:23.683Z,69.29
2022-08-03T04:11:55.231Z,68.91
2022-08-03T04:14:29.941Z,69.42
2022-08-03T04:17:02.812Z,68.97
2022-08-03T04:19:49.279Z,69.17
2022-08-03T04:22:19.845Z,68.92
2022-08-03T04:24:59.264Z,69.22
2022-08-03T04:27:31.306Z,68.64
2022-08-03T04:30:02.483Z,67.64
2022-08-03T04:32:30.832Z,66.82
2022-08-03T04:34:57.974Z,64.70
2022-08-03T04:37:38.504Z,64.26
2022-08-03T04:40:11.324Z,63.71
2022-08-03T04:42:39.603Z,61.54
2022-08-03T04:45:08.263Z,59.08
2022-08-03T04:47:36.402Z,59.64
2022-08-03T04:50:04.906Z,60.35
2022-08-03T04:52:34.810Z,59.25
2022-08-03T04:55:01.491Z,59.80
2022-08-03T04:57:28.150Z,57.81
2022-08-03T05:00:02.126Z,57.13
2022-08-03T05:02:30.112Z,55.40
2022-08-03T05:04:57.481Z,56.87
2022-08-03T05:07:25.014Z,55.76
2022-08-03T05:09:57.481Z,53.86
2022-08-03T05:12:32.531Z,53.87
2022-08-03T05:15:00.853Z,52.89
2022-08-03T05:17:28.604Z,54.52
2022-08-03T05:19:56.110Z,55.05
2022-08-03T05:22:23.252Z,55.54
2022-08-03T05:24:49.937Z,54.16
2022-08-03T05:27:19.605Z,53.93
2022-08-03T05:29:48.185Z,54.11
2022-08-03T05:32:16.158Z,52.97
2022-08-03T05:34:42.858Z,52.52
2022-08-03T05:37:13.060Z,52.67
2022-08-03T05:39:39.807Z,50.86
2022-08-03T05:42:06.566Z,50.34
2022-08-03T05:44:33.312Z,48.22
2022-08-03T05:47:00.011Z,49.47
2022-08-03T05:49:26.832Z,46.63
2022-08-03T05:52:09.733Z,44.53
2022-08-03T05:54:56.120Z,44.39
2022-08-03T05:57:24.973Z,43.81
2022-08-03T05:59:55.753Z,43.32
2022-08-03T06:02:25.943Z,40.29
2022-08-03T06:04:52.639Z,41.16
2022-08-03T06:07:19.375Z,42.16
2022-08-03T06:10:34.957Z,44.69
2022-08-03T06:12:36.029Z,45.67
2022-08-03T06:15:04.492Z,47.52
2022-08-03T06:17:37.379Z,46.40
2022-08-03T06:20:06.022Z,47.47
2022-08-03T06:22:32.698Z,48.83
2022-08-03T06:25:03.404Z,46.35
2022-08-03T06:27:37.139Z,48.15
2022-08-03T06:30:05.444Z,48.99
2022-08-03T06:32:32.540Z,51.94
2022-08-03T06:34:59.723Z,48.29
2022-08-03T06:37:27.220Z,50.66
2022-08-03T06:39:54.391Z,50.40
2022-08-03T06:42:21.303Z,46.64
2022-08-03T06:44:49.817Z,50.46
2022-08-03T06:47:16.497Z,48.81
2022-08-03T06:49:43.236Z,49.14
2022-08-03T06:52:10.267Z,47.36
2022-08-03T06:54:37.143Z,53.28
2022-08-03T06:57:04.412Z,48.65
2022-08-03T07:00:07.870Z,48.51
2022-08-03T07:02:19.805Z,48.59
2022-08-03T07:04:48.940Z,54.89
2022-08-03T07:07:15.883Z,49.07
2022-08-03T07:09:42.620Z,48.19
2022-08-03T07:12:24.159Z,51.22
2022-08-03T07:14:50.827Z,49.15
2022-08-03T07:17:17.501Z,50.03
2022-08-03T07:19:44.639Z,50.02
2022-08-03T07:22:11.805Z,50.16
2022-08-03T07:24:38.594Z,54.03
2022-08-03T07:27:05.307Z,48.88
2022-08-03T07:29:34.591Z,49.84
2022-08-03T07:32:01.534Z,51.67
2022-08-03T07:34:28.226Z,45.81
2022-08-03T07:36:54.983Z,46.09
2022-08-03T07:39:21.655Z,43.73
2022-08-03T07:41:51.461Z,45.81
2022-08-03T07:44:19.320Z,48.64
2022-08-03T07:46:46.697Z,44.32
2022-08-03T07:49:13.835Z,44.88
2022-08-03T07:51:40.576Z,42.92
2022-08-03T07:54:07.887Z,45.02
2022-08-03T07:56:34.697Z,46.18
2022-08-03T07:59:03.009Z,40.74
2022-08-03T08:01:30.262Z,43.47
2022-08-03T08:03:56.966Z,42.63
2022-08-03T08:06:23.673Z,40.91
2022-08-03T08:08:50.335Z,42.73
2022-08-03T08:11:18.184Z,45.33
2022-08-03T08:13:45.042Z,42.52
2022-08-03T08:16:11.678Z,42.65
2022-08-03T08:18:38.487Z,40.71
2022-08-03T08:21:05.248Z,42.50
2022-08-03T08:23:42.261Z,40.80
2022-08-03T08:26:10.555Z,40.72
2022-08-03T08:28:37.284Z,40.15
2022-08-03T08:31:04.054Z,44.64
2022-08-03T08:34:02.476Z,43.53
2022-08-03T08:36:18.159Z,42.29
2022-08-03T08:38:45.233Z,42.43
2022-08-03T08:41:13.804Z,41.07
2022-08-03T08:43:41.816Z,40.32
2022-08-03T08:46:11.973Z,39.34
2022-08-03T08:48:44.205Z,40.41
2022-08-03T08:51:12.615Z,38.73
2022-08-03T08:53:44.198Z,39.74
2022-08-03T08:56:17.505Z,38.28
2022-08-03T08:58:59.295Z,36.54
2022-08-03T09:01:26.633Z,37.24
2022-08-03T09:03:54.412Z,37.05
2022-08-03T09:06:22.235Z,35.22
2022-08-03T09:08:49.250Z,34.99
2022-08-03T09:11:16.112Z,36.83
2022-08-03T09:13:43.068Z,39.36
2022-08-03T09:16:13.991Z,37.11
2022-08-03T09:18:42.991Z,37.04
2022-08-03T09:21:30.805Z,36.67
2022-08-03T09:24:03.722Z,37.94
2022-08-03T09:26:32.161Z,37.55
2022-08-03T09:29:09.556Z,37.75
2022-08-03T09:31:45.445Z,40.52
2022-08-03T09:34:17.544Z,39.01
2022-08-03T09:36:46.773Z,36.13
2022-08-03T09:39:14.974Z,37.68
2022-08-03T09:41:43.751Z,37.63
2022-08-03T09:44:24.306Z,37.77
2022-08-03T09:46:56.792Z,37.64
2022-08-03T09:49:25.150Z,38.81
2022-08-03T09:52:32.257Z,39.09
2022-08-03T09:54:39.461Z,39.69
2022-08-03T09:57:06.307Z,40.63
2022-08-03T09:59:34.541Z,39.34
2022-08-03T10:02:02.005Z,38.20
2022-08-03T10:04:29.020Z,40.06
2022-08-03T10:07:23.268Z,40.78
2022-08-03T10:10:30.709Z,38.60
2022-08-03T10:12:50.691Z,39.03
2022-08-03T10:16:21.564Z,39.21
2022-08-03T10:18:04.753Z,37.75
2022-08-03T10:20:36.643Z,37.19
2022-08-03T10:23:05.206Z,36.90
2022-08-03T10:25:34.256Z,39.04
2022-08-03T10:28:05.676Z,37.71
2022-08-03T10:30:33.400Z,39.76
2022-08-03T10:33:05.228Z,39.52
2022-08-03T10:35:56.512Z,40.44
2022-08-03T10:38:48.000Z,38.97
2022-08-03T10:41:17.804Z,39.11
2022-08-03T10:44:07.070Z,39.16
2022-08-03T10:46:35.215Z,39.12
2022-08-03T10:49:03.233Z,38.01
2022-08-03T10:51:32.918Z,38.54
2022-08-03T10:54:01.927Z,39.61
2022-08-03T10:56:54.342Z,37.87
2022-08-03T10:59:47.136Z,41.52
2022-08-03T11:02:15.208Z,40.44
2022-08-03T11:04:45.457Z,38.39
2022-08-03T11:07:23.801Z,37.86
2022-08-03T11:09:56.022Z,41.35
2022-08-03T11:12:30.213Z,39.85
2022-08-03T11:15:07.256Z,40.10
2022-08-03T11:17:46.407Z,39.33
2022-08-03T11:20:57.541Z,41.66
2022-08-03T11:24:04.308Z,38.72
2022-08-03T11:26:33.035Z,38.35
2022-08-03T11:29:29.219Z,36.47
2022-08-03T11:31:56.059Z,37.37
2022-08-03T11:34:24.830Z,37.12
2022-08-03T11:37:29.998Z,35.94
2022-08-03T11:40:02.375Z,36.29
2022-08-03T11:42:29.246Z,37.99
2022-08-03T11:45:00.833Z,36.63
2022-08-03T11:47:29.593Z,37.20
2022-08-03T11:50:00.823Z,37.90
2022-08-03T11:52:34.155Z,37.54
2022-08-03T11:55:01.084Z,37.73
2022-08-03T11:59:16.470Z,38.57
2022-08-03T12:00:32.242Z,36.63
2022-08-03T12:03:05.333Z,36.83
2022-08-03T12:05:51.428Z,39.09
2022-08-03T12:08:28.233Z,40.35
2022-08-03T12:10:56.916Z,39.18
2022-08-03T12:14:26.938Z,39.38
2022-08-03T12:16:19.061Z,39.24
2022-08-03T12:18:46.710Z,37.87
2022-08-03T12:21:13.452Z,37.88
2022-08-03T12:23:40.229Z,38.45
2022-08-03T12:26:10.221Z,37.23
2022-08-03T12:28:38.344Z,38.09
2022-08-03T12:31:08.211Z,39.13
2022-08-03T12:34:10.480Z,39.54
2022-08-03T12:36:38.975Z,37.42
2022-08-03T12:39:08.853Z,38.42
2022-08-03T12:41:40.027Z,38.20
2022-08-03T12:44:08.104Z,36.79
2022-08-03T12:46:37.768Z,39.24
2022-08-03T12:49:15.664Z,39.95
2022-08-03T12:51:42.547Z,36.30
2022-08-03T12:54:11.141Z,34.28
2022-08-03T12:57:10.592Z,34.43
2022-08-03T12:59:52.704Z,32.95
2022-08-03T13:02:26.267Z,33.73
2022-08-03T13:04:54.549Z,32.88
2022-08-03T13:07:22.504Z,32.22
2022-08-03T13:09:49.421Z,31.55
2022-08-03T13:12:22.850Z,32.31
2022-08-03T13:14:52.424Z,32.07
2022-08-03T13:17:20.089Z,30.71
2022-08-03T13:19:48.176Z,31.58
2022-08-03T13:22:17.739Z,32.35
2022-08-03T13:24:46.162Z,32.71
2022-08-03T13:28:03.757Z,32.84
2022-08-03T13:30:00.994Z,33.50
2022-08-03T13:32:27.666Z,33.79
2022-08-03T13:34:54.332Z,34.40
2022-08-03T13:37:21.480Z,34.88
2022-08-03T13:39:59.501Z,36.26
2022-08-03T13:42:29.559Z,35.59
2022-08-03T13:44:56.536Z,35.69
2022-08-03T13:47:23.390Z,36.46
2022-08-03T13:50:00.026Z,38.34
2022-08-03T13:52:30.352Z,36.03
2022-08-03T13:54:58.901Z,36.09
2022-08-03T13:58:11.639Z,37.97
2022-08-03T14:00:26.132Z,37.45
2022-08-03T14:02:55.333Z,34.17
2022-08-03T14:05:25.198Z,35.76
2022-08-03T14:07:51.865Z,34.39
2022-08-03T14:10:23.501Z,36.87
2022-08-03T14:12:50.249Z,36.22
2022-08-03T14:15:16.924Z,36.11
2022-08-03T14:17:49.658Z,35.02
2022-08-03T14:20:37.404Z,33.03
2022-08-03T14:23:03.692Z,32.34
2022-08-03T14:25:43.200Z,32.26
2022-08-03T14:28:16.971Z,33.27
2022-08-03T14:30:43.604Z,31.86
2022-08-03T14:33:10.246Z,32.24
2022-08-03T14:35:36.955Z,31.60
2022-08-03T14:38:03.637Z,31.88
2022-08-03T14:40:30.297Z,31.68
2022-08-03T14:42:57.324Z,32.42
2022-08-03T14:45:24.119Z,32.24
2022-08-03T14:49:02.793Z,31.60
2022-08-03T14:50:43.183Z,32.15
2022-08-03T14:53:14.103Z,32.93
2022-08-03T14:55:50.569Z,32.29
2022-08-03T14:58:27.504Z,32.34
2022-08-03T15:00:55.661Z,32.60
2022-08-03T15:03:24.958Z,31.90
2022-08-03T15:05:56.794Z,32.53
2022-08-03T15:08:27.188Z,31.43
2022-08-03T15:10:54.757Z,31.43
2022-08-03T15:13:21.603Z,31.84
2022-08-03T15:15:49.762Z,31.79
2022-08-03T15:18:16.839Z,32.38
2022-08-03T15:20:45.538Z,33.57
2022-08-03T15:23:14.306Z,33.17
2022-08-03T15:26:03.974Z,36.34
2022-08-03T15:28:27.748Z,32.38
2022-08-03T15:30:54.756Z,32.85
2022-08-03T15:33:21.888Z,32.63
2022-08-03T15:35:49.823Z,32.85
2022-08-03T15:38:16.853Z,31.92
2022-08-03T15:40:43.555Z,33.11
2022-08-03T15:43:10.290Z,32.62
2022-08-03T15:45:37.587Z,32.57
2022-08-03T15:48:06.090Z,32.24
2022-08-03T15:50:32.970Z,32.53
2022-08-03T15:52:59.835Z,33.43
2022-08-03T15:55:27.267Z,33.15
2022-08-03T15:59:04.480Z,32.84
2022-08-03T16:00:43.287Z,33.51
2022-08-03T16:03:10.783Z,34.19
2022-08-03T16:05:38.659Z,33.88
2022-08-03T16:08:08.003Z,33.90
2022-08-03T16:10:38.663Z,33.35
2022-08-03T16:13:05.385Z,34.31
2022-08-03T16:15:32.327Z,33.61
2022-08-03T16:18:06.473Z,33.32
2022-08-03T16:20:35.197Z,33.65
2022-08-03T16:23:11.475Z,33.50
2022-08-03T16:25:40.746Z,33.54
2022-08-03T16:28:13.415Z,33.94
2022-08-03T16:30:43.388Z,34.35
2022-08-03T16:33:11.470Z,34.40
2022-08-03T16:35:43.931Z,33.96
2022-08-03T16:38:13.184Z,34.34
2022-08-03T16:40:43.356Z,34.47
2022-08-03T16:43:17.820Z,34.80
2022-08-03T16:45:46.183Z,34.86
2022-08-03T16:48:13.308Z,34.89
2022-08-03T16:50:40.039Z,35.62
2022-08-03T16:53:09.071Z,35.41
2022-08-03T16:55:43.534Z,36.47
2022-08-03T16:58:19.579Z,35.36
2022-08-03T17:01:10.884Z,36.45
2022-08-03T17:04:01.818Z,36.74
2022-08-03T17:06:34.509Z,37.53
2022-08-03T17:09:13.042Z,37.80
2022-08-03T17:11:47.121Z,37.92
2022-08-03T17:14:21.764Z,38.10
2022-08-03T17:16:52.460Z,37.44
2022-08-03T17:19:23.298Z,37.98
2022-08-03T17:22:04.165Z,39.28
2022-08-03T17:24:43.542Z,38.62
2022-08-03T17:28:41.326Z,39.15
2022-08-03T17:30:11.980Z,38.40
2022-08-03T17:32:56.665Z,38.31
2022-08-03T17:35:34.404Z,39.08
2022-08-03T17:38:06.646Z,38.45
2022-08-03T17:40:38.006Z,39.79
2022-08-03T17:44:13.380Z,38.88
2022-08-03T17:45:54.622Z,38.54
2022-08-03T17:48:25.038Z,39.87
2022-08-03T17:50:59.572Z,39.01
2022-08-03T17:53:37.601Z,39.70
2022-08-03T17:56:38.769Z,39.33
2022-08-03T17:59:51.859Z,39.17
2022-08-03T18:03:13.905Z,39.82
2022-08-03T18:06:11.371Z,39.38
2022-08-03T18:08:36.607Z,39.38
2022-08-03T18:11:14.555Z,39.69
2022-08-03T18:13:53.521Z,39.89
2022-08-03T18:17:00.468Z,39.89
2022-08-03T18:20:03.283Z,40.41
2022-08-03T18:22:20.238Z,39.98
2022-08-03T18:24:49.683Z,39.63
2022-08-03T18:27:16.796Z,40.37
2022-08-03T18:29:47.125Z,40.21
2022-08-03T18:32:16.926Z,40.82
2022-08-03T18:34:53.381Z,40.10
2022-08-03T18:37:25.225Z,39.98
2022-08-03T18:39:55.832Z,40.44
2022-08-03T18:42:25.914Z,39.96
2022-08-03T18:44:56.553Z,39.80
2022-08-03T18:47:57.143Z,40.81
2022-08-03T18:50:26.915Z,39.72
2022-08-03T18:53:19.737Z,40.81
2022-08-03T18:56:24.238Z,40.45
2022-08-03T18:58:53.943Z,40.15
2022-08-03T19:01:58.025Z,39.89
2022-08-03T19:04:34.078Z,40.62
2022-08-03T19:07:35.947Z,39.76
2022-08-03T19:10:07.224Z,39.55
2022-08-03T19:12:53.233Z,40.22
2022-08-03T19:15:36.307Z,40.19
2022-08-03T19:18:10.481Z,39.24
2022-08-03T19:20:38.226Z,39.57
2022-08-03T19:23:06.666Z,39.18
2022-08-03T19:25:38.363Z,39.55
2022-08-03T19:28:07.389Z,39.79
2022-08-03T19:30:40.007Z,39.33
2022-08-03T19:33:13.892Z,39.11
2022-08-03T19:35:51.294Z,39.21
2022-08-03T19:38:29.025Z,39.45
2022-08-03T19:41:00.138Z,39.10
2022-08-03T19:43:32.983Z,39.97
2022-08-03T19:46:17.227Z,40.20
2022-08-03T19:48:54.131Z,40.25
2022-08-03T19:51:56.676Z,41.02
2022-08-03T19:54:15.025Z,41.66
2022-08-03T19:56:48.353Z,42.50
2022-08-03T19:59:15.950Z,42.49
2022-08-03T20:01:50.370Z,43.68
2022-08-03T20:04:18.094Z,45.27
2022-08-03T20:06:49.818Z,44.97
2022-08-03T20:09:19.325Z,46.16
2022-08-03T20:11:47.953Z,46.45
2022-08-03T20:14:20.756Z,47.12
2022-08-03T20:16:53.821Z,47.68
2022-08-03T20:19:20.607Z,48.05
2022-08-03T20:21:49.009Z,49.13
2022-08-03T20:24:33.212Z,49.12
2022-08-03T20:27:07.690Z,49.45
2022-08-03T20:30:05.118Z,49.92
2022-08-03T20:32:25.850Z,50.25
2022-08-03T20:34:53.062Z,50.63
2022-08-03T20:37:20.046Z,50.44
2022-08-03T20:39:48.180Z,51.15
2022-08-03T20:42:21.152Z,51.50
2022-08-03T20:45:04.683Z,51.70
2022-08-03T20:47:35.758Z,52.12
2022-08-03T20:50:04.312Z,51.74
2022-08-03T20:52:34.773Z,51.85
2022-08-03T20:55:14.615Z,52.54
2022-08-03T20:57:42.787Z,52.93
2022-08-03T21:00:17.866Z,53.40
2022-08-03T21:02:44.708Z,53.78
2022-08-03T21:05:11.552Z,54.36
2022-08-03T21:08:05.549Z,54.71
2022-08-03T21:10:31.157Z,54.28
2022-08-03T21:13:17.678Z,55.39
2022-08-03T21:16:03.281Z,55.44
2022-08-03T21:18:41.238Z,55.53
2022-08-03T21:21:14.192Z,55.99
2022-08-03T21:23:48.301Z,56.18
2022-08-03T21:26:18.039Z,56.98
2022-08-03T21:28:46.998Z,56.34
2022-08-03T21:31:22.362Z,57.12
2022-08-03T21:33:57.411Z,57.47
2022-08-03T21:36:27.374Z,56.40
2022-08-03T21:38:57.007Z,56.74
2022-08-03T21:41:30.105Z,57.27
2022-08-03T21:43:58.111Z,58.31
2022-08-03T21:46:27.307Z,58.63
2022-08-03T21:50:04.749Z,59.01
2022-08-03T21:51:49.492Z,59.17
2022-08-03T21:54:17.981Z,59.92
2022-08-03T21:56:47.806Z,59.79
2022-08-03T21:59:19.867Z,60.08
2022-08-03T22:01:55.389Z,60.41
2022-08-03T22:04:53.144Z,61.30
2022-08-03T22:07:12.634Z,61.07
2022-08-03T22:09:39.375Z,61.34
2022-08-03T22:12:06.515Z,62.85
2022-08-03T22:14:34.690Z,63.22
2022-08-03T22:17:03.334Z,63.53
2022-08-03T22:19:33.335Z,63.82
2022-08-03T22:22:00.545Z,63.91
2022-08-03T22:24:30.164Z,63.67
2022-08-03T22:27:15.269Z,64.13
2022-08-03T22:29:43.334Z,64.72
2022-08-03T22:32:10.159Z,65.12
2022-08-03T22:34:37.700Z,65.32
2022-08-03T22:37:05.458Z,65.38
2022-08-03T22:39:32.252Z,65.44
2022-08-03T22:42:00.101Z,65.38
2022-08-03T22:44:27.624Z,65.51
2022-08-03T22:46:55.546Z,66.33
2022-08-03T22:49:22.876Z,66.32
2022-08-03T22:51:51.873Z,66.30
2022-08-03T22:54:19.202Z,66.43
2022-08-03T22:56:47.044Z,66.43
2022-08-03T22:59:39.168Z,67.72
2022-08-03T23:02:20.183Z,67.29
2022-08-03T23:04:58.002Z,67.14
2022-08-03T23:07:32.349Z,67.62
2022-08-03T23:10:01.729Z,68.21
2022-08-03T23:12:30.654Z,67.21
2022-08-03T23:15:01.350Z,67.38
2022-08-03T23:17:31.047Z,67.15
2022-08-03T23:20:08.994Z,67.00
2022-08-03T23:22:39.383Z,67.20
2022-08-03T23:25:10.340Z,67.63
2022-08-03T23:27:41.790Z,67.99
2022-08-03T23:30:10.265Z,67.66
2022-08-03T23:32:38.103Z,67.04
2022-08-03T23:36:19.991Z,67.40
2022-08-03T23:38:22.866Z,67.90
2022-08-03T23:40:51.471Z,68.24
2022-08-03T23:43:51.217Z,67.29
2022-08-03T23:46:09.224Z,68.61
2022-08-03T23:48:36.040Z,68.31
2022-08-03T23:51:13.456Z,68.82
2022-08-03T23:54:14.761Z,69.28
2022-08-03T23:56:54.691Z,69.86
2022-08-03T23:59:29.840Z,68.87
